Time;durP1;ratioP1;P1;durP2;ratioP2;P2;SDS_P1;SDS_P2;PMS_P1;PMS_P2;Temp;Humidity;BMP_temperature;BMP_pressure;BME280_temperature;BME280_humidity;BME280_pressure;Samples;Min_cycle;Max_cycle;Signal;HPM_P1;HPM_P2
2022/02/14 00:00:50;;;;;;;69.55;29.98;;;;;;;2.43;96.20;98263.94;5083225;28;20038;-90
2022/02/14 00:03:19;;;;;;;69.47;30.55;;;;;;;2.24;96.28;98246.72;5074329;28;20119;-90
2022/02/14 00:05:45;;;;;;;67.97;31.40;;;;;;;2.16;95.86;98228.38;5102338;28;20020;-89
2022/02/14 00:08:12;;;;;;;69.10;31.23;;;;;;;2.32;96.13;98260.63;5074430;28;20032;-90
2022/02/14 00:10:38;;;;;;;75.07;33.80;;;;;;;2.16;96.14;98241.56;5066153;28;20024;-90
2022/02/14 00:13:04;;;;;;;71.43;32.22;;;;;;;2.14;96.03;98231.94;5067381;28;20041;-91
2022/02/14 00:15:30;;;;;;;70.53;32.83;;;;;;;2.29;96.08;98250.13;5072210;28;20115;-90
2022/02/14 00:17:58;;;;;;;76.05;34.17;;;;;;;1.98;97.27;98227.81;5072245;28;20540;-91
2022/02/14 00:20:24;;;;;;;70.35;32.58;;;;;;;2.03;97.22;98224.19;5079266;28;20038;-90
2022/02/14 00:22:49;;;;;;;74.95;33.83;;;;;;;2.01;97.07;98218.09;5071812;28;20028;-91
2022/02/14 00:25:19;;;;;;;61.03;27.65;;;;;;;2.07;97.30;98256.69;5076793;28;20122;-90
2022/02/14 00:27:44;;;;;;;60.45;26.20;;;;;;;1.87;96.99;98248.25;5084115;28;20019;-91
2022/02/14 00:30:10;;;;;;;66.30;25.48;;;;;;;1.76;98.03;98250.16;5066896;28;20392;-91
2022/02/14 00:32:36;;;;;;;53.00;25.63;;;;;;;1.68;98.76;98225.69;5078242;28;20041;-90
2022/02/14 00:35:02;;;;;;;53.97;24.05;;;;;;;1.79;98.83;98248.34;5070682;28;20027;-91
2022/02/14 00:37:28;;;;;;;50.13;24.48;;;;;;;1.79;98.94;98240.44;5074430;28;20035;-91
2022/02/14 00:39:53;;;;;;;51.80;23.42;;;;;;;1.86;98.04;98234.19;5069770;28;20495;-91
2022/02/14 00:42:19;;;;;;;54.70;24.10;;;;;;;1.87;97.91;98246.47;5077062;28;20035;-91
2022/02/14 00:44:44;;;;;;;49.35;23.27;;;;;;;1.81;98.30;98241.31;5072208;28;20024;-91
2022/02/14 00:47:10;;;;;;;56.25;24.42;;;;;;;1.80;97.97;98234.28;5074075;28;20015;-90
2022/02/14 00:49:36;;;;;;;52.60;25.52;;;;;;;1.88;98.08;98248.19;5073665;28;20040;-91
2022/02/14 00:52:02;;;;;;;68.97;29.50;;;;;;;1.91;97.38;98247.28;5079187;28;20028;-91
2022/02/14 00:54:27;;;;;;;73.03;30.25;;;;;;;1.82;97.50;98245.66;5079604;28;20031;-91
2022/02/14 00:56:53;;;;;;;54.15;26.40;;;;;;;1.82;97.54;98235.09;5065591;28;20020;-90
2022/02/14 00:59:19;;;;;;;61.22;27.55;;;;;;;1.71;97.59;98221.25;5072641;28;20047;-91
2022/02/14 01:01:44;;;;;;;56.63;26.70;;;;;;;1.46;98.41;98197.03;5075611;28;20032;-91
2022/02/14 01:04:10;;;;;;;55.70;25.85;;;;;;;1.61;99.36;98219.63;5079432;28;20031;-90
2022/02/14 01:06:36;;;;;;;53.72;25.08;;;;;;;1.53;99.96;98211.88;5099502;28;20375;-91
2022/02/14 01:09:02;;;;;;;64.03;27.10;;;;;;;1.52;100.00;98218.03;5079226;28;20019;-91
2022/02/14 01:11:28;;;;;;;67.95;27.15;;;;;;;1.47;100.00;98209.34;5081352;28;20031;-91
2022/02/14 01:13:54;;;;;;;54.85;24.58;;;;;;;1.53;100.00;98217.13;5080434;28;20501;-91
2022/02/14 01:16:19;;;;;;;57.75;24.45;;;;;;;1.54;100.00;98215.34;5070907;28;20276;-91
2022/02/14 01:18:45;;;;;;;53.60;24.45;;;;;;;1.57;100.00;98216.19;5089913;28;20058;-91
2022/02/14 01:21:11;;;;;;;53.53;23.00;;;;;;;1.51;100.00;98199.59;5075515;28;20089;-92
2022/02/14 01:23:36;;;;;;;49.20;20.98;;;;;;;1.53;100.00;98217.13;5089633;28;20032;-91
2022/02/14 01:26:02;;;;;;;46.50;20.90;;;;;;;1.51;100.00;98199.59;5071933;28;20105;-91
2022/02/14 01:28:27;;;;;;;53.53;19.83;;;;;;;1.55;100.00;98193.38;5079846;28;20096;-90
2022/02/14 01:30:53;;;;;;;39.80;19.48;;;;;;;1.68;100.00;98202.84;5072547;28;20024;-91
2022/02/14 01:33:18;;;;;;;51.40;21.77;;;;;;;1.73;99.87;98184.28;5074519;28;20116;-91
2022/02/14 01:35:46;;;;;;;43.53;20.65;;;;;;;1.72;99.50;98177.28;5066063;28;20028;-91
2022/02/14 01:38:12;;;;;;;47.55;22.08;;;;;;;1.89;99.85;98196.31;5091584;28;20500;-90
2022/02/14 01:40:37;;;;;;;49.50;21.85;;;;;;;2.00;99.07;98191.75;5065303;28;20039;-90
2022/02/14 01:43:03;;;;;;;45.65;21.77;;;;;;;2.00;98.40;98181.19;5074653;28;20031;-91
2022/02/14 01:45:29;;;;;;;46.17;22.05;;;;;;;2.03;98.29;98170.59;5067458;28;20028;-90
2022/02/14 01:47:54;;;;;;;58.92;23.98;;;;;;;2.01;98.82;98175.00;5065904;28;20125;-91
2022/02/14 01:50:20;;;;;;;70.35;28.40;;;;;;;2.00;98.80;98162.72;5068903;28;20032;-91
2022/02/14 01:52:46;;;;;;;51.28;23.67;;;;;;;2.09;98.34;98173.13;5072761;28;20122;-91
2022/02/14 01:55:14;;;;;;;58.30;26.85;;;;;;;2.03;98.60;98179.34;5089270;28;20028;-90
2022/02/14 01:57:40;;;;;;;64.40;27.77;;;;;;;2.00;99.18;98165.38;5070038;28;20089;-91
2022/02/14 02:00:11;;;;;;;62.92;27.20;;;;;;;2.11;98.60;98166.03;5100821;28;20041;-90
2022/02/14 02:02:36;;;;;;;63.85;27.83;;;;;;;2.18;98.22;98167.66;5074590;28;20028;-89
2022/02/14 02:05:04;;;;;;;82.35;32.83;;;;;;;2.21;97.61;98162.31;5085621;28;20023;-90
2022/02/14 02:07:30;;;;;;;72.75;31.27;;;;;;;2.16;97.64;98143.06;5086546;28;20019;-91
2022/02/14 02:09:56;;;;;;;64.93;27.90;;;;;;;2.13;97.24;98132.56;5095054;28;20418;-91
2022/02/14 02:12:25;;;;;;;60.22;27.15;;;;;;;2.05;98.04;98126.56;5096872;28;20116;-90
2022/02/14 02:14:53;;;;;;;63.92;28.38;;;;;;;2.38;97.79;98160.22;5096895;28;20024;-91
2022/02/14 02:17:19;;;;;;;64.57;30.45;;;;;;;2.34;96.61;98132.13;5100003;28;20035;-91
2022/02/14 02:19:44;;;;;;;66.93;30.63;;;;;;;2.43;96.20;98147.78;5090365;28;20027;-90
2022/02/14 02:22:10;;;;;;;69.88;30.63;;;;;;;2.41;95.82;98139.03;5079604;28;20103;-91
2022/02/14 02:24:53;;;;;;;63.75;29.98;;;;;;;2.35;95.59;98122.44;5080864;28;20458;-90
2022/02/14 02:27:18;;;;;;;;;;;;;;;2.49;95.50;98147.66;5100554;28;20463;-91
2022/02/14 02:29:46;;;;;;;67.97;30.42;;;;;;;2.41;96.15;98133.75;5077312;28;19943;-92
2022/02/14 02:32:12;;;;;;;70.40;29.25;;;;;;;2.33;96.22;98119.84;5083940;28;20043;-91
2022/02/14 02:34:39;;;;;;;67.22;30.13;;;;;;;2.34;96.99;98140.06;5082038;28;20016;-91
2022/02/14 02:37:07;;;;;;;61.42;28.42;;;;;;;2.35;96.91;98127.72;5086492;28;20118;-92
2022/02/14 02:39:33;;;;;;;60.80;29.52;;;;;;;2.43;96.34;98146.94;5074406;28;20023;-90
2022/02/14 02:41:59;;;;;;;56.83;27.90;;;;;;;2.36;96.51;98125.06;5075524;28;20070;-90
2022/02/14 02:44:25;;;;;;;56.13;27.88;;;;;;;2.36;96.49;98122.44;5087787;28;20031;-89
2022/02/14 02:46:51;;;;;;;58.58;28.33;;;;;;;2.38;95.82;98128.53;5085110;28;20081;-90
2022/02/14 02:49:21;;;;;;;59.70;28.33;;;;;;;2.39;96.39;98122.38;5069485;28;20048;-91
2022/02/14 02:51:51;;;;;;;53.28;26.10;;;;;;;2.31;96.92;98129.56;5077101;28;20055;-90
2022/02/14 02:54:18;;;;;;;52.78;25.75;;;;;;;2.04;99.15;98115.16;5072675;28;20043;-90
2022/02/14 02:56:45;;;;;;;55.97;25.90;;;;;;;2.04;100.00;98128.34;5078041;28;20446;-90
2022/02/14 02:59:13;;;;;;;53.60;24.90;;;;;;;1.86;100.00;98125.16;5073336;28;20088;-91
2022/02/14 03:01:39;;;;;;;50.10;23.60;;;;;;;1.77;100.00;98128.84;5061699;28;20123;-90
2022/02/14 03:04:06;;;;;;;49.47;23.95;;;;;;;1.68;100.00;98131.66;5062206;28;20028;-90
2022/02/14 03:06:32;;;;;;;51.75;24.05;;;;;;;1.64;100.00;98132.59;5071071;28;20032;-91
2022/02/14 03:08:58;;;;;;;59.13;27.77;;;;;;;1.56;100.00;98119.56;5073881;28;20474;-90
2022/02/14 03:11:24;;;;;;;54.40;25.73;;;;;;;1.41;100.00;98117.19;5080860;28;20046;-90
2022/02/14 03:13:50;;;;;;;53.25;25.63;;;;;;;1.52;100.00;98123.13;5060722;28;20023;-89
2022/02/14 03:16:16;;;;;;;57.97;27.02;;;;;;;1.41;100.00;98096.09;5067887;28;20072;-90
2022/02/14 03:18:42;;;;;;;58.42;28.33;;;;;;;1.54;100.00;98120.47;5080449;28;20111;-90
2022/02/14 03:21:09;;;;;;;62.78;27.60;;;;;;;1.48;100.00;98110.03;5075002;28;20494;-90
2022/02/14 03:23:35;;;;;;;68.43;29.92;;;;;;;1.58;100.00;98107.22;5079396;28;20093;-90
2022/02/14 03:26:01;;;;;;;70.45;31.23;;;;;;;1.63;100.00;98120.31;5075530;28;20471;-90
2022/02/14 03:28:26;;;;;;;66.65;31.65;;;;;;;1.69;100.00;98114.06;5068163;28;20035;-90
2022/02/14 03:30:52;;;;;;;61.88;31.23;;;;;;;1.75;100.00;98119.22;5072830;28;20452;-89
2022/02/14 03:33:18;;;;;;;62.70;29.42;;;;;;;1.63;100.00;98110.63;5065141;28;20065;-90
2022/02/14 03:35:43;;;;;;;67.05;29.73;;;;;;;1.54;100.00;98091.47;5061782;28;20031;-90
2022/02/14 03:38:09;;;;;;;57.25;29.27;;;;;;;1.75;100.00;98119.22;5060992;28;20035;-90
2022/02/14 03:40:36;;;;;;;61.85;28.17;;;;;;;1.67;100.00;98115.84;5069081;28;20058;-90
2022/02/14 03:43:02;;;;;;;58.67;28.20;;;;;;;1.66;100.00;98108.84;5064682;28;20475;-91
2022/02/14 03:45:28;;;;;;;68.32;28.23;;;;;;;1.71;100.00;98110.50;5082227;28;20137;-89
2022/02/14 03:47:54;;;;;;;53.60;24.55;;;;;;;1.78;100.00;98111.28;5072141;28;20415;-90
2022/02/14 03:50:20;;;;;;;58.30;24.52;;;;;;;1.76;100.00;98111.28;5073070;28;20041;-91
2022/02/14 03:52:45;;;;;;;46.10;23.23;;;;;;;1.85;100.00;98112.88;5060031;28;20173;-91
2022/02/14 03:55:13;;;;;;;60.60;28.05;;;;;;;1.86;100.00;98117.25;5077789;28;20039;-90
2022/02/14 03:57:38;;;;;;;50.03;24.73;;;;;;;1.76;100.00;98099.84;5086584;28;20035;-87
2022/02/14 04:00:08;;;;;;;53.58;24.58;;;;;;;1.85;100.00;98112.88;5066501;28;20024;-88
2022/02/14 04:02:34;;;;;;;48.25;23.48;;;;;;;1.83;100.00;98102.38;5076792;28;20038;-91
2022/02/14 04:05:00;;;;;;;54.25;24.63;;;;;;;1.82;100.00;98115.56;5061088;28;20023;-90
2022/02/14 04:07:26;;;;;;;52.53;24.48;;;;;;;1.80;100.00;98106.81;5067785;28;20031;-90
2022/02/14 04:10:00;;;;;;;56.38;24.00;;;;;;;1.87;100.00;98108.47;5083713;28;20024;-89
2022/02/14 04:12:26;;;;;;;52.35;24.90;;;;;;;1.94;100.00;98116.22;5072606;28;20145;-74
2022/02/14 04:14:52;;;;;;;49.80;25.67;;;;;;;1.92;100.00;98103.97;5103931;28;20051;-91
2022/02/14 04:17:17;;;;;;;54.95;27.50;;;;;;;1.98;100.00;98123.19;5077074;28;20058;-91
2022/02/14 04:19:43;;;;;;;57.38;25.75;;;;;;;1.87;100.00;98106.69;5074829;28;20038;-92
2022/02/14 04:22:08;;;;;;;55.97;26.05;;;;;;;1.93;100.00;98125.03;5080959;28;20023;-91
2022/02/14 04:24:34;;;;;;;55.42;26.30;;;;;;;1.88;100.00;98104.91;5078455;28;20031;-91
2022/02/14 04:27:00;;;;;;;68.97;29.13;;;;;;;1.89;100.00;98109.28;5076051;28;20028;-91
2022/02/14 04:29:25;;;;;;;60.30;28.48;;;;;;;2.02;99.85;98113.44;5078358;28;20051;-91
2022/02/14 04:31:51;;;;;;;63.10;28.63;;;;;;;2.01;100.00;98120.47;5065513;28;20032;-91
2022/02/14 04:34:19;;;;;;;59.15;28.95;;;;;;;1.97;100.00;98107.41;5071862;28;20035;-92
2022/02/14 04:36:49;;;;;;;69.60;32.17;;;;;;;1.96;100.00;98111.78;5069092;28;20052;-91
2022/02/14 04:39:15;;;;;;;95.00;45.25;;;;;;;1.97;100.00;98110.03;5061259;28;20067;-90
2022/02/14 04:41:41;;;;;;;120.95;56.78;;;;;;;1.81;100.00;98100.66;5064624;28;20111;-86
2022/02/14 04:44:07;;;;;;;118.85;53.85;;;;;;;1.90;100.00;98103.13;5071272;28;20024;-92
2022/02/14 04:46:32;;;;;;;114.28;54.20;;;;;;;1.75;100.00;98098.13;5077151;28;20055;-91
2022/02/14 04:48:58;;;;;;;99.05;49.65;;;;;;;1.57;100.00;98071.19;5070089;28;20140;-91
2022/02/14 04:51:25;;;;;;;95.72;45.67;;;;;;;1.74;100.00;98093.75;5072277;28;20031;-90
2022/02/14 04:53:54;;;;;;;82.38;42.95;;;;;;;1.71;100.00;98107.00;5077916;28;20036;-91
2022/02/14 04:56:20;;;;;;;87.10;45.13;;;;;;;1.69;100.00;98085.06;5086261;28;20035;-89
2022/02/14 04:58:46;;;;;;;90.55;42.95;;;;;;;1.88;100.00;98104.91;5088625;28;20077;-88
2022/02/14 05:01:12;;;;;;;69.90;32.75;;;;;;;1.79;100.00;98105.06;5063179;28;20032;-91
2022/02/14 05:03:37;;;;;;;55.50;29.17;;;;;;;1.77;100.00;98085.78;5058071;28;20028;-90
2022/02/14 05:06:03;;;;;;;56.42;26.20;;;;;;;1.79;100.00;98089.25;5073486;28;20038;-90
2022/02/14 05:08:49;;;;;;;55.72;27.08;;;;;;;1.73;100.00;98099.91;5079952;28;20483;-91
2022/02/14 05:11:17;;;;;;;58.10;27.80;;;;;;;1.75;100.00;98103.41;5082226;28;20026;-92
2022/02/14 05:13:45;;;;;;;58.33;26.20;;;;;;;1.73;100.00;98098.16;5101662;28;20049;-90
2022/02/14 05:16:11;;;;;;;56.83;26.08;;;;;;;1.80;100.00;98091.00;5081498;28;20481;-91
2022/02/14 05:18:37;;;;;;;54.35;25.35;;;;;;;1.81;100.00;98098.03;5061019;28;20024;-88
2022/02/14 05:21:04;;;;;;;56.00;24.83;;;;;;;1.85;100.00;98097.03;5078219;28;20115;-89
2022/02/14 05:23:30;;;;;;;58.38;26.58;;;;;;;1.87;100.00;98095.28;5098279;28;20382;-90
2022/02/14 05:25:56;;;;;;;54.03;26.73;;;;;;;1.76;100.00;98087.53;5081188;28;20031;-82
2022/02/14 05:28:21;;;;;;;68.90;27.27;;;;;;;1.80;100.00;98097.16;5076302;28;20491;-89
2022/02/14 05:30:47;;;;;;;51.95;24.77;;;;;;;1.72;100.00;98093.81;5078493;28;20036;-90
2022/02/14 05:33:13;;;;;;;54.97;24.85;;;;;;;1.71;100.00;98091.16;5065935;28;20043;-89
2022/02/14 05:35:39;;;;;;;47.88;24.60;;;;;;;1.79;100.00;98095.41;5085621;28;20019;-90
2022/02/14 05:38:05;;;;;;;55.90;26.38;;;;;;;1.84;100.00;98097.97;5087479;28;20031;-89
2022/02/14 05:40:30;;;;;;;64.72;27.98;;;;;;;1.79;100.00;98086.63;5082849;28;20031;-91
2022/02/14 05:42:56;;;;;;;62.28;29.50;;;;;;;1.88;100.00;98104.91;5082028;28;20080;-90
2022/02/14 05:45:24;;;;;;;68.75;29.83;;;;;;;1.97;100.00;98107.41;5080672;28;20403;-90
2022/02/14 05:47:50;;;;;;;53.72;26.40;;;;;;;1.95;100.00;98104.78;5066955;28;20489;-91
2022/02/14 05:50:15;;;;;;;73.57;30.83;;;;;;;1.82;100.00;98100.63;5077864;28;20066;-88
2022/02/14 05:52:41;;;;;;;63.10;30.80;;;;;;;1.83;100.00;98101.50;5063775;28;20673;-90
2022/02/14 05:55:07;;;;;;;69.60;34.00;;;;;;;1.97;100.00;98104.75;5081571;28;20020;-90
2022/02/14 05:57:33;;;;;;;78.63;37.42;;;;;;;1.97;100.00;98089.78;5082539;28;20020;-90
2022/02/14 05:59:59;;;;;;;73.22;36.08;;;;;;;1.98;100.00;98095.94;5091915;28;20032;-91
2022/02/14 06:02:25;;;;;;;83.55;40.78;;;;;;;1.89;100.00;98077.66;5082259;28;20031;-91
2022/02/14 06:04:51;;;;;;;111.82;48.15;;;;;;;2.01;100.00;98095.88;5080021;28;20008;-90
2022/02/14 06:07:17;;;;;;;167.02;57.55;;;;;;;2.13;100.00;98100.91;5071007;28;20024;-90
2022/02/14 06:09:42;;;;;;;145.93;53.67;;;;;;;2.28;100.00;98099.75;5070039;28;20112;-92
2022/02/14 06:12:08;;;;;;;139.65;59.95;;;;;;;2.17;100.00;98086.75;5080664;28;20049;-90
2022/02/14 06:14:41;;;;;;;104.40;45.90;;;;;;;2.24;100.00;98085.75;5072547;28;20047;-91
2022/02/14 06:17:07;;;;;;;101.63;46.92;;;;;;;2.44;100.00;98099.38;5045438;28;20031;-90
2022/02/14 06:19:33;;;;;;;106.57;47.65;;;;;;;2.55;100.00;98094.72;5066566;28;20035;-89
2022/02/14 06:21:58;;;;;;;112.30;48.70;;;;;;;2.68;100.00;98096.22;5064616;28;20024;-92
2022/02/14 06:24:24;;;;;;;113.65;46.85;;;;;;;2.92;98.64;98112.44;5064809;28;20020;-90
2022/02/14 06:26:49;;;;;;;100.90;43.78;;;;;;;2.98;97.07;98114.94;5064673;28;20034;-91
2022/02/14 06:29:15;;;;;;;100.20;42.72;;;;;;;3.15;95.58;98105.69;5083167;28;20028;-90
2022/02/14 06:31:41;;;;;;;97.93;46.60;;;;;;;3.03;95.21;98107.75;5068509;28;20048;-92
2022/02/14 06:34:06;;;;;;;86.68;40.83;;;;;;;3.41;93.39;98110.38;5063294;28;20483;-91
2022/02/14 06:36:32;;;;;;;87.25;41.25;;;;;;;3.89;90.29;98116.16;5082349;28;20032;-91
2022/02/14 06:38:59;;;;;;;95.55;42.80;;;;;;;4.25;86.75;98106.34;5064143;28;20073;-91
2022/02/14 06:41:26;;;;;;;102.82;45.05;;;;;;;4.83;82.40;98117.00;5060838;28;20519;-91
2022/02/14 06:43:53;;;;;;;113.80;46.30;;;;;;;5.20;79.45;98115.88;5062182;28;20414;-90
2022/02/14 06:46:20;;;;;;;111.72;48.63;;;;;;;5.13;78.33;98094.00;5068929;28;20465;-91
2022/02/14 06:48:45;;;;;;;108.20;50.22;;;;;;;5.18;79.59;98123.88;5064506;28;20052;-91
2022/02/14 06:51:11;;;;;;;103.72;49.80;;;;;;;6.35;73.94;98104.88;5099920;27;20072;-91
2022/02/14 06:53:37;;;;;;;118.28;52.42;;;;;;;7.38;68.54;98113.31;5101992;27;20023;-91
2022/02/14 06:56:06;;;;;;;115.03;52.75;;;;;;;8.17;64.40;98103.72;5101779;27;20038;-90
2022/02/14 06:58:36;;;;;;;106.38;50.63;;;;;;;9.26;61.48;98090.72;5102728;27;20027;-89
2022/02/14 07:01:03;;;;;;;111.15;52.05;;;;;;;10.44;55.32;98088.34;5101873;27;20027;-90
2022/02/14 07:03:30;;;;;;;98.80;48.20;;;;;;;11.40;52.52;98082.97;5101516;27;20027;-90
2022/02/14 07:05:56;;;;;;;101.85;49.03;;;;;;;11.68;50.61;98076.91;5101673;27;20019;-90
2022/02/14 07:08:22;;;;;;;101.95;50.75;;;;;;;11.84;49.50;98074.25;5101487;27;20027;-91
2022/02/14 07:10:48;;;;;;;113.55;58.85;;;;;;;12.50;48.35;98072.00;5102304;27;20214;-91
2022/02/14 07:13:13;;;;;;;91.70;47.15;;;;;;;12.53;47.68;98055.72;5117842;27;20027;-91
2022/02/14 07:15:39;;;;;;;87.07;46.47;;;;;;;12.54;47.13;98065.50;5101561;27;20019;-91
2022/02/14 07:18:10;;;;;;;89.43;46.78;;;;;;;12.77;46.42;98069.41;5101146;27;20035;-90
2022/02/14 07:20:36;;;;;;;87.30;44.13;;;;;;;13.00;45.86;98050.94;5101139;27;20031;-90
2022/02/14 07:23:02;;;;;;;102.22;49.10;;;;;;;13.47;44.81;98039.81;5117616;27;20026;-90
2022/02/14 07:25:28;;;;;;;101.95;49.35;;;;;;;13.31;45.12;98049.84;5099946;27;20440;-92
2022/02/14 07:27:54;;;;;;;90.88;49.25;;;;;;;13.16;45.33;98048.16;5100487;27;20029;-90
2022/02/14 07:30:20;;;;;;;93.00;45.85;;;;;;;13.00;45.75;98058.13;5098846;27;20031;-90
2022/02/14 07:32:46;;;;;;;74.05;39.50;;;;;;;12.52;46.70;98060.22;5100710;27;20472;-90
2022/02/14 07:35:13;;;;;;;70.25;37.55;;;;;;;11.38;49.25;98079.50;5099789;27;20031;-89
2022/02/14 07:37:39;;;;;;;73.63;37.70;;;;;;;11.07;50.40;98076.84;5101433;27;20508;-89
2022/02/14 07:40:06;;;;;;;90.68;38.72;;;;;;;11.74;49.18;98075.72;5117651;27;20027;-89
2022/02/14 07:42:32;;;;;;;97.70;40.92;;;;;;;11.60;49.26;98073.78;5100295;27;20451;-90
2022/02/14 07:44:57;;;;;;;88.55;40.03;;;;;;;12.12;48.18;98066.25;5099539;27;20047;-91
2022/02/14 07:47:23;;;;;;;89.78;42.97;;;;;;;12.57;47.44;98051.91;5098593;27;20114;-88
2022/02/14 07:49:49;;;;;;;66.10;30.58;;;;;;;12.28;47.63;98059.03;5099327;27;20043;-89
2022/02/14 07:52:15;;;;;;;76.07;33.67;;;;;;;12.79;46.68;98059.47;5099761;28;20483;-91
2022/02/14 07:54:44;;;;;;;56.80;32.60;;;;;;;13.26;45.53;98057.34;5100533;27;20102;-91
2022/02/14 07:57:09;;;;;;;59.83;28.50;;;;;;;13.02;45.77;98050.81;5087004;28;20534;-91
2022/02/14 07:59:35;;;;;;;55.30;28.25;;;;;;;12.67;46.38;98053.06;5100262;28;20063;-91
2022/02/14 08:02:02;;;;;;;49.85;24.95;;;;;;;13.62;43.88;98046.03;5099679;28;20031;-92
2022/02/14 08:04:28;;;;;;;42.15;21.38;;;;;;;14.05;42.77;98025.19;5096523;28;20030;-91
2022/02/14 08:06:53;;;;;;;41.00;20.70;;;;;;;13.53;43.23;98012.53;5098275;28;20079;-90
2022/02/14 08:09:19;;;;;;;39.95;19.05;;;;;;;13.82;42.66;98025.84;5096888;28;20427;-90
2022/02/14 08:11:45;;;;;;;39.85;21.60;;;;;;;12.83;44.74;98034.13;5098659;28;20035;-89
2022/02/14 08:14:10;;;;;;;44.53;21.00;;;;;;;10.55;49.20;98053.88;5098451;28;20019;-90
2022/02/14 08:16:36;;;;;;;53.40;25.23;;;;;;;10.54;50.41;98073.53;5099825;28;20030;-91
2022/02/14 08:19:02;;;;;;;51.75;27.95;;;;;;;10.31;50.75;98039.97;5100448;28;20034;-91
2022/02/14 08:21:32;;;;;;;58.08;28.75;;;;;;;10.91;50.19;98073.28;5097825;28;20038;-89
2022/02/14 08:23:59;;;;;;;57.38;31.55;;;;;;;10.61;50.54;98048.19;5098844;28;20038;-89
2022/02/14 08:26:25;;;;;;;62.97;32.40;;;;;;;10.64;50.83;98064.91;5098329;28;20430;-88
2022/02/14 08:28:51;;;;;;;65.35;34.00;;;;;;;10.52;51.45;98067.41;5097951;28;20297;-91
2022/02/14 08:31:17;;;;;;;69.38;36.17;;;;;;;9.97;53.39;98080.94;5098802;28;20030;-87
2022/02/14 08:33:42;;;;;;;63.20;32.53;;;;;;;9.47;53.98;98080.81;5098911;28;20023;-91
2022/02/14 08:36:08;;;;;;;61.92;30.58;;;;;;;8.35;58.75;98094.09;5099464;28;20027;-91
2022/02/14 08:38:37;;;;;;;52.25;27.50;;;;;;;8.06;62.11;98102.44;5115252;28;20508;-88
2022/02/14 08:41:04;;;;;;;53.88;26.52;;;;;;;7.34;66.32;98106.38;5099100;28;20038;-90
2022/02/14 08:43:30;;;;;;;42.47;24.17;;;;;;;6.78;69.92;98117.44;5098784;28;20027;-91
2022/02/14 08:45:56;;;;;;;47.97;24.67;;;;;;;6.78;70.66;98089.97;5100480;27;20041;-91
2022/02/14 08:48:22;;;;;;;48.15;21.38;;;;;;;6.64;69.99;98090.53;5103104;27;20114;-90
2022/02/14 08:50:49;;;;;;;44.33;23.77;;;;;;;6.43;72.82;98100.13;5101809;27;20039;-90
2022/02/14 08:53:17;;;;;;;45.40;23.83;;;;;;;6.55;74.39;98093.53;5096033;27;20019;-92
2022/02/14 08:55:43;;;;;;;43.55;23.52;;;;;;;6.70;75.24;98097.38;5103787;27;20213;-89
2022/02/14 08:58:09;;;;;;;39.58;20.67;;;;;;;6.59;75.74;98095.13;5102986;27;20034;-90
2022/02/14 09:00:35;;;;;;;40.55;21.55;;;;;;;6.31;77.49;98081.09;5102792;27;20030;-90
2022/02/14 09:03:01;;;;;;;48.72;25.00;;;;;;;6.16;80.60;98089.63;5102299;27;20576;-89
2022/02/14 09:05:27;;;;;;;46.55;25.88;;;;;;;5.84;84.17;98078.34;5103000;27;20023;-89
2022/02/14 09:07:53;;;;;;;44.45;25.30;;;;;;;5.95;88.90;98092.13;5105234;27;20027;-89
2022/02/14 09:10:19;;;;;;;52.33;23.33;;;;;;;6.10;90.58;98100.47;5103483;27;20058;-90
2022/02/14 09:12:46;;;;;;;42.60;23.05;;;;;;;6.12;90.99;98093.34;5104274;27;20447;-89
2022/02/14 09:15:12;;;;;;;49.20;22.00;;;;;;;6.16;90.71;98090.50;5106404;27;20513;-91
2022/02/14 09:17:38;;;;;;;34.83;19.52;;;;;;;6.26;90.74;98085.72;5102062;27;20023;-89
2022/02/14 09:20:04;;;;;;;32.58;17.42;;;;;;;6.54;87.57;98091.78;5101650;27;20486;-87
2022/02/14 09:22:30;;;;;;;41.90;18.33;;;;;;;6.60;89.38;98094.19;5100235;27;20031;-89
2022/02/14 09:24:56;;;;;;;33.05;17.67;;;;;;;6.90;90.02;98098.34;5118061;27;20022;-89
2022/02/14 09:27:22;;;;;;;23.75;13.80;;;;;;;6.96;83.96;98089.25;5100850;27;20558;-89
2022/02/14 09:29:48;;;;;;;25.05;13.98;;;;;;;7.40;80.88;98103.47;5118532;27;20137;-89
2022/02/14 09:32:14;;;;;;;36.53;20.20;;;;;;;7.57;81.10;98106.31;5100394;27;20019;-88
2022/02/14 09:34:40;;;;;;;41.70;19.17;;;;;;;7.59;82.94;98094.69;5100358;27;20025;-89
2022/02/14 09:37:06;;;;;;;43.97;23.08;;;;;;;7.78;82.81;98101.91;5100056;27;20023;-89
2022/02/14 09:39:31;;;;;;;41.55;20.42;;;;;;;7.84;81.24;98093.66;5117840;27;20053;-88
2022/02/14 09:42:02;;;;;;;45.97;23.98;;;;;;;8.01;78.42;98081.34;5096435;27;20139;-89
2022/02/14 09:44:28;;;;;;;44.03;24.17;;;;;;;8.25;79.19;98098.06;5101175;27;20038;-89
2022/02/14 09:46:54;;;;;;;40.22;21.80;;;;;;;8.46;75.38;98088.28;5101297;27;20026;-90
2022/02/14 09:49:20;;;;;;;43.78;22.17;;;;;;;8.57;76.27;98089.53;5099702;27;20047;-89
2022/02/14 09:51:47;;;;;;;51.67;26.20;;;;;;;8.35;78.83;98094.09;5100184;27;20054;-90
2022/02/14 09:54:12;;;;;;;41.15;19.83;;;;;;;8.47;78.88;98100.66;5099658;27;20121;-89
2022/02/14 09:56:39;;;;;;;34.22;19.48;;;;;;;8.34;79.35;98076.34;5101475;27;20451;-90
2022/02/14 09:59:06;;;;;;;33.50;17.35;;;;;;;8.81;78.62;98094.66;5099802;27;20042;-90
2022/02/14 10:01:32;;;;;;;46.30;21.80;;;;;;;9.14;76.55;98096.63;5100802;27;20031;-89
2022/02/14 10:04:00;;;;;;;30.15;17.90;;;;;;;9.53;73.29;98076.97;5100958;27;20435;-90
2022/02/14 10:06:27;;;;;;;31.92;18.02;;;;;;;10.01;68.88;98085.19;5100910;27;20115;-90
2022/02/14 10:09:08;;;;;;;29.88;17.05;;;;;;;11.46;65.29;98079.09;5100944;27;20482;-90
2022/02/14 10:11:42;;;;;;;35.95;19.35;;;;;;;12.83;61.41;98069.91;5135860;27;20034;-91
2022/02/14 10:14:18;;;;;;;29.48;17.23;;;;;;;14.21;53.67;98041.13;5102266;27;20478;-91
2022/02/14 10:17:02;;;;;;;28.73;16.33;;;;;;;14.91;48.85;98032.56;5102260;27;20029;-89
2022/02/14 10:19:31;;;;;;;25.70;14.10;;;;;;;15.58;45.03;98003.38;5117367;27;20098;-90
2022/02/14 10:21:57;;;;;;;28.73;15.85;;;;;;;16.62;44.80;98010.63;5099626;27;20041;-90
2022/02/14 10:24:23;;;;;;;29.85;16.52;;;;;;;16.77;43.21;97996.75;5099316;27;20118;-88
2022/02/14 10:26:51;;;;;;;31.27;17.77;;;;;;;16.56;44.20;97994.91;5118670;27;20046;-89
2022/02/14 10:29:32;;;;;;;29.40;18.13;;;;;;;15.19;47.18;98031.44;5099369;27;20023;-90
2022/02/14 10:32:08;;;;;;;25.98;17.15;;;;;;;14.95;46.95;98004.41;5102359;27;20483;-89
2022/02/14 10:34:35;;;;;;;30.77;17.65;;;;;;;14.37;49.77;98021.16;5117302;27;20015;-90
2022/02/14 10:37:01;;;;;;;31.95;19.10;;;;;;;14.24;49.54;98001.44;5098689;27;20037;-89
2022/02/14 10:39:28;;;;;;;29.77;16.75;;;;;;;14.41;49.39;98003.81;5099403;27;20081;-89
2022/02/14 10:41:57;;;;;;;28.13;15.75;;;;;;;14.75;48.22;98005.00;5100769;27;20031;-89
2022/02/14 10:47:15;;;;;;;25.25;15.57;;;;;;;14.13;48.94;97979.75;5119049;27;20034;-90
2022/02/14 10:49:41;;;;;;;26.85;16.73;;;;;;;13.89;49.57;97993.06;5108638;28;20527;-88
2022/02/14 10:52:10;;;;;;;27.55;16.15;;;;;;;14.02;49.69;97987.72;5078811;28;20104;-89
2022/02/14 10:54:42;;;;;;;26.25;14.57;;;;;;;14.19;49.59;97989.22;5069320;28;20035;-90
2022/02/14 10:57:27;;;;;;;21.95;13.73;;;;;;;15.45;45.54;97973.75;5088601;28;20107;-89
2022/02/14 11:00:14;;;;;;;19.80;13.05;;;;;;;16.38;43.95;97958.50;5071513;28;20027;-89
2022/02/14 11:02:52;;;;;;;24.48;15.02;;;;;;;16.90;42.81;97944.44;5069027;28;20402;-90
2022/02/14 11:05:20;;;;;;;22.92;12.77;;;;;;;17.06;42.24;97945.78;5065492;28;20032;-88
2022/02/14 11:07:46;;;;;;;17.73;12.50;;;;;;;16.53;42.52;97941.09;5083057;28;20038;-90
2022/02/14 11:10:17;;;;;;;18.15;11.88;;;;;;;15.46;44.66;97935.03;5076332;28;20165;-90
2022/02/14 11:12:49;;;;;;;19.60;11.77;;;;;;;15.88;43.54;97943.56;5079765;28;20036;-90
2022/02/14 11:15:15;;;;;;;21.13;13.75;;;;;;;16.48;42.97;97933.38;5083116;28;20106;-89
2022/02/14 11:17:46;;;;;;;20.33;12.30;;;;;;;16.77;42.45;97926.50;5066599;28;20516;-88
2022/02/14 11:20:14;;;;;;;24.55;12.38;;;;;;;17.81;40.64;97932.31;5062863;28;20158;-90